sensor_id;sensor_type;location;lat;lon;timestamp;P1;durP1;ratioP1;P2;durP2;ratioP2
41687;SDS011;27371;42.686;23.362;2023-08-06T00:04:00;6.43;;;2.67;;
41687;SDS011;27371;42.686;23.362;2023-08-06T00:06:26;3.42;;;2.13;;
41687;SDS011;27371;42.686;23.362;2023-08-06T00:08:51;3.67;;;2.40;;
41687;SDS011;27371;42.686;23.362;2023-08-06T00:11:17;11.00;;;3.90;;
41687;SDS011;27371;42.686;23.362;2023-08-06T00:13:42;7.30;;;2.38;;
41687;SDS011;27371;42.686;23.362;2023-08-06T00:16:09;4.47;;;2.38;;
41687;SDS011;27371;42.686;23.362;2023-08-06T00:18:37;5.68;;;2.70;;
41687;SDS011;27371;42.686;23.362;2023-08-06T00:21:03;6.38;;;2.40;;
41687;SDS011;27371;42.686;23.362;2023-08-06T00:23:28;4.82;;;2.15;;
41687;SDS011;27371;42.686;23.362;2023-08-06T00:25:54;3.70;;;2.20;;
41687;SDS011;27371;42.686;23.362;2023-08-06T00:28:19;4.13;;;2.05;;
41687;SDS011;27371;42.686;23.362;2023-08-06T00:30:45;4.93;;;2.50;;
41687;SDS011;27371;42.686;23.362;2023-08-06T00:33:10;5.38;;;2.78;;
41687;SDS011;27371;42.686;23.362;2023-08-06T00:35:36;3.75;;;2.60;;
41687;SDS011;27371;42.686;23.362;2023-08-06T00:38:01;5.85;;;3.00;;
41687;SDS011;27371;42.686;23.362;2023-08-06T00:40:27;5.10;;;3.70;;
41687;SDS011;27371;42.686;23.362;2023-08-06T00:42:55;5.13;;;3.92;;
41687;SDS011;27371;42.686;23.362;2023-08-06T00:45:20;6.53;;;4.32;;
41687;SDS011;27371;42.686;23.362;2023-08-06T00:47:47;5.55;;;4.03;;
41687;SDS011;27371;42.686;23.362;2023-08-06T00:50:13;6.25;;;4.60;;
41687;SDS011;27371;42.686;23.362;2023-08-06T00:52:38;6.85;;;4.50;;
41687;SDS011;27371;42.686;23.362;2023-08-06T00:55:05;7.68;;;4.28;;
41687;SDS011;27371;42.686;23.362;2023-08-06T00:57:31;5.82;;;4.32;;
41687;SDS011;27371;42.686;23.362;2023-08-06T00:59:57;6.85;;;4.90;;
41687;SDS011;27371;42.686;23.362;2023-08-06T01:02:23;7.20;;;4.70;;
41687;SDS011;27371;42.686;23.362;2023-08-06T01:04:48;5.75;;;4.40;;
41687;SDS011;27371;42.686;23.362;2023-08-06T01:12:45;7.13;;;5.47;;
41687;SDS011;27371;42.686;23.362;2023-08-06T01:15:20;6.00;;;4.47;;
41687;SDS011;27371;42.686;23.362;2023-08-06T01:17:48;7.15;;;5.18;;
41687;SDS011;27371;42.686;23.362;2023-08-06T01:20:14;5.72;;;4.57;;
41687;SDS011;27371;42.686;23.362;2023-08-06T01:22:40;6.20;;;4.40;;
41687;SDS011;27371;42.686;23.362;2023-08-06T01:25:05;6.03;;;4.93;;
41687;SDS011;27371;42.686;23.362;2023-08-06T01:27:38;6.57;;;4.60;;
41687;SDS011;27371;42.686;23.362;2023-08-06T01:30:20;6.28;;;4.57;;
41687;SDS011;27371;42.686;23.362;2023-08-06T01:32:52;5.30;;;4.30;;
41687;SDS011;27371;42.686;23.362;2023-08-06T01:35:20;6.18;;;4.28;;
41687;SDS011;27371;42.686;23.362;2023-08-06T01:37:47;6.60;;;4.13;;
41687;SDS011;27371;42.686;23.362;2023-08-06T01:40:13;7.38;;;4.00;;
41687;SDS011;27371;42.686;23.362;2023-08-06T01:42:39;4.18;;;3.25;;
41687;SDS011;27371;42.686;23.362;2023-08-06T01:45:08;5.70;;;3.17;;
41687;SDS011;27371;42.686;23.362;2023-08-06T01:47:35;6.78;;;3.72;;
41687;SDS011;27371;42.686;23.362;2023-08-06T01:50:01;5.57;;;3.90;;
41687;SDS011;27371;42.686;23.362;2023-08-06T01:52:27;4.43;;;3.65;;
41687;SDS011;27371;42.686;23.362;2023-08-06T01:54:52;3.67;;;2.80;;
41687;SDS011;27371;42.686;23.362;2023-08-06T01:57:18;5.40;;;3.17;;
41687;SDS011;27371;42.686;23.362;2023-08-06T01:59:44;5.28;;;2.85;;
41687;SDS011;27371;42.686;23.362;2023-08-06T02:02:09;4.53;;;3.45;;
41687;SDS011;27371;42.686;23.362;2023-08-06T02:04:35;4.93;;;3.17;;
41687;SDS011;27371;42.686;23.362;2023-08-06T02:07:00;4.22;;;3.00;;
41687;SDS011;27371;42.686;23.362;2023-08-06T02:09:26;4.65;;;3.47;;
41687;SDS011;27371;42.686;23.362;2023-08-06T02:11:51;6.07;;;3.20;;
41687;SDS011;27371;42.686;23.362;2023-08-06T02:14:17;5.35;;;3.40;;
41687;SDS011;27371;42.686;23.362;2023-08-06T02:16:42;4.60;;;3.20;;
41687;SDS011;27371;42.686;23.362;2023-08-06T02:19:08;5.05;;;2.75;;
41687;SDS011;27371;42.686;23.362;2023-08-06T02:21:33;4.25;;;3.00;;
41687;SDS011;27371;42.686;23.362;2023-08-06T02:23:59;7.28;;;3.00;;
41687;SDS011;27371;42.686;23.362;2023-08-06T02:26:24;6.75;;;3.55;;
41687;SDS011;27371;42.686;23.362;2023-08-06T02:28:50;4.38;;;2.83;;
41687;SDS011;27371;42.686;23.362;2023-08-06T02:31:15;4.13;;;2.80;;
41687;SDS011;27371;42.686;23.362;2023-08-06T02:33:41;4.38;;;2.67;;
41687;SDS011;27371;42.686;23.362;2023-08-06T02:36:06;5.80;;;4.05;;
41687;SDS011;27371;42.686;23.362;2023-08-06T02:38:32;6.97;;;3.50;;
41687;SDS011;27371;42.686;23.362;2023-08-06T02:40:58;7.50;;;4.05;;
41687;SDS011;27371;42.686;23.362;2023-08-06T02:43:23;8.65;;;3.92;;
41687;SDS011;27371;42.686;23.362;2023-08-06T02:45:49;4.18;;;2.47;;
41687;SDS011;27371;42.686;23.362;2023-08-06T02:48:14;5.20;;;3.28;;
41687;SDS011;27371;42.686;23.362;2023-08-06T02:50:40;4.60;;;2.50;;
41687;SDS011;27371;42.686;23.362;2023-08-06T02:53:06;3.60;;;2.55;;
41687;SDS011;27371;42.686;23.362;2023-08-06T02:55:33;4.03;;;2.00;;
41687;SDS011;27371;42.686;23.362;2023-08-06T02:57:59;4.10;;;2.55;;
41687;SDS011;27371;42.686;23.362;2023-08-06T03:00:25;5.60;;;2.80;;
41687;SDS011;27371;42.686;23.362;2023-08-06T03:02:51;5.28;;;2.33;;
41687;SDS011;27371;42.686;23.362;2023-08-06T03:05:17;5.55;;;2.75;;
41687;SDS011;27371;42.686;23.362;2023-08-06T03:07:43;5.57;;;2.60;;
41687;SDS011;27371;42.686;23.362;2023-08-06T03:10:08;4.68;;;2.50;;
41687;SDS011;27371;42.686;23.362;2023-08-06T03:12:34;8.77;;;2.63;;
41687;SDS011;27371;42.686;23.362;2023-08-06T03:15:00;6.65;;;2.90;;
41687;SDS011;27371;42.686;23.362;2023-08-06T03:17:25;5.45;;;3.08;;
41687;SDS011;27371;42.686;23.362;2023-08-06T03:19:50;4.28;;;3.10;;
41687;SDS011;27371;42.686;23.362;2023-08-06T03:22:16;11.23;;;4.90;;
41687;SDS011;27371;42.686;23.362;2023-08-06T03:24:42;6.55;;;3.65;;
41687;SDS011;27371;42.686;23.362;2023-08-06T03:27:07;5.68;;;3.08;;
41687;SDS011;27371;42.686;23.362;2023-08-06T03:29:33;7.13;;;3.33;;
41687;SDS011;27371;42.686;23.362;2023-08-06T03:31:58;5.03;;;3.38;;
41687;SDS011;27371;42.686;23.362;2023-08-06T03:34:24;4.82;;;3.38;;
41687;SDS011;27371;42.686;23.362;2023-08-06T03:36:49;5.63;;;3.70;;
41687;SDS011;27371;42.686;23.362;2023-08-06T03:39:15;5.10;;;3.30;;
41687;SDS011;27371;42.686;23.362;2023-08-06T03:41:40;5.00;;;3.50;;
41687;SDS011;27371;42.686;23.362;2023-08-06T03:44:06;5.25;;;3.35;;
41687;SDS011;27371;42.686;23.362;2023-08-06T03:46:31;4.05;;;2.83;;
41687;SDS011;27371;42.686;23.362;2023-08-06T03:48:59;5.10;;;2.60;;
41687;SDS011;27371;42.686;23.362;2023-08-06T03:51:25;4.60;;;3.13;;
41687;SDS011;27371;42.686;23.362;2023-08-06T03:53:51;6.32;;;3.40;;
41687;SDS011;27371;42.686;23.362;2023-08-06T03:56:16;4.43;;;3.00;;
41687;SDS011;27371;42.686;23.362;2023-08-06T03:58:42;4.75;;;3.30;;
41687;SDS011;27371;42.686;23.362;2023-08-06T04:01:07;4.07;;;2.90;;
41687;SDS011;27371;42.686;23.362;2023-08-06T04:03:33;3.47;;;3.15;;
41687;SDS011;27371;42.686;23.362;2023-08-06T04:05:59;4.90;;;3.28;;
41687;SDS011;27371;42.686;23.362;2023-08-06T04:08:26;4.47;;;3.03;;
41687;SDS011;27371;42.686;23.362;2023-08-06T04:10:52;4.25;;;3.10;;
41687;SDS011;27371;42.686;23.362;2023-08-06T04:13:17;4.97;;;3.38;;
41687;SDS011;27371;42.686;23.362;2023-08-06T04:15:43;4.63;;;2.60;;
41687;SDS011;27371;42.686;23.362;2023-08-06T04:18:09;5.15;;;2.80;;
41687;SDS011;27371;42.686;23.362;2023-08-06T04:20:34;4.82;;;2.78;;
41687;SDS011;27371;42.686;23.362;2023-08-06T04:23:05;4.88;;;4.00;;
41687;SDS011;27371;42.686;23.362;2023-08-06T04:25:31;4.05;;;3.00;;
41687;SDS011;27371;42.686;23.362;2023-08-06T04:27:56;5.35;;;3.17;;
41687;SDS011;27371;42.686;23.362;2023-08-06T04:30:22;4.95;;;3.00;;
41687;SDS011;27371;42.686;23.362;2023-08-06T04:32:49;5.45;;;2.90;;
41687;SDS011;27371;42.686;23.362;2023-08-06T04:35:15;3.10;;;2.67;;
41687;SDS011;27371;42.686;23.362;2023-08-06T04:37:40;5.20;;;2.40;;
41687;SDS011;27371;42.686;23.362;2023-08-06T04:40:06;4.07;;;2.70;;
41687;SDS011;27371;42.686;23.362;2023-08-06T04:42:32;5.88;;;2.50;;
41687;SDS011;27371;42.686;23.362;2023-08-06T04:44:58;5.05;;;2.72;;
41687;SDS011;27371;42.686;23.362;2023-08-06T04:47:23;3.67;;;2.75;;
41687;SDS011;27371;42.686;23.362;2023-08-06T04:49:50;3.35;;;2.80;;
41687;SDS011;27371;42.686;23.362;2023-08-06T04:52:16;4.35;;;2.78;;
41687;SDS011;27371;42.686;23.362;2023-08-06T04:54:43;3.33;;;2.90;;
41687;SDS011;27371;42.686;23.362;2023-08-06T04:57:08;3.88;;;2.78;;
41687;SDS011;27371;42.686;23.362;2023-08-06T04:59:35;6.75;;;3.22;;
41687;SDS011;27371;42.686;23.362;2023-08-06T05:02:00;3.33;;;2.63;;
41687;SDS011;27371;42.686;23.362;2023-08-06T05:04:26;6.07;;;3.20;;
41687;SDS011;27371;42.686;23.362;2023-08-06T05:06:52;4.45;;;3.42;;
41687;SDS011;27371;42.686;23.362;2023-08-06T05:09:18;3.92;;;3.03;;
41687;SDS011;27371;42.686;23.362;2023-08-06T05:11:46;4.72;;;3.00;;
41687;SDS011;27371;42.686;23.362;2023-08-06T05:14:12;7.70;;;3.08;;
41687;SDS011;27371;42.686;23.362;2023-08-06T05:16:37;4.03;;;2.92;;
41687;SDS011;27371;42.686;23.362;2023-08-06T05:19:03;2.95;;;2.33;;
41687;SDS011;27371;42.686;23.362;2023-08-06T05:21:28;4.72;;;2.85;;
41687;SDS011;27371;42.686;23.362;2023-08-06T05:23:54;3.58;;;2.40;;
41687;SDS011;27371;42.686;23.362;2023-08-06T05:26:19;3.70;;;2.15;;
41687;SDS011;27371;42.686;23.362;2023-08-06T05:28:45;4.00;;;2.50;;
41687;SDS011;27371;42.686;23.362;2023-08-06T05:31:11;3.92;;;2.25;;
41687;SDS011;27371;42.686;23.362;2023-08-06T05:33:37;4.68;;;3.45;;
41687;SDS011;27371;42.686;23.362;2023-08-06T05:36:02;5.13;;;3.05;;
41687;SDS011;27371;42.686;23.362;2023-08-06T05:38:29;4.68;;;3.47;;
41687;SDS011;27371;42.686;23.362;2023-08-06T05:40:54;3.97;;;3.08;;
41687;SDS011;27371;42.686;23.362;2023-08-06T05:43:21;4.20;;;3.72;;
41687;SDS011;27371;42.686;23.362;2023-08-06T05:45:48;4.35;;;3.63;;
41687;SDS011;27371;42.686;23.362;2023-08-06T05:48:14;6.38;;;3.90;;
41687;SDS011;27371;42.686;23.362;2023-08-06T05:50:40;3.95;;;3.30;;
41687;SDS011;27371;42.686;23.362;2023-08-06T05:53:05;4.07;;;3.13;;
41687;SDS011;27371;42.686;23.362;2023-08-06T05:55:31;5.90;;;3.13;;
41687;SDS011;27371;42.686;23.362;2023-08-06T05:57:57;3.95;;;3.13;;
41687;SDS011;27371;42.686;23.362;2023-08-06T06:00:23;4.03;;;2.80;;
41687;SDS011;27371;42.686;23.362;2023-08-06T06:02:49;3.42;;;2.20;;
41687;SDS011;27371;42.686;23.362;2023-08-06T06:05:14;3.00;;;2.10;;
41687;SDS011;27371;42.686;23.362;2023-08-06T06:07:40;4.05;;;2.30;;
41687;SDS011;27371;42.686;23.362;2023-08-06T06:10:05;2.42;;;2.03;;
41687;SDS011;27371;42.686;23.362;2023-08-06T06:12:31;2.88;;;1.70;;
41687;SDS011;27371;42.686;23.362;2023-08-06T06:14:57;5.15;;;1.95;;
41687;SDS011;27371;42.686;23.362;2023-08-06T06:17:22;2.25;;;1.50;;
41687;SDS011;27371;42.686;23.362;2023-08-06T06:19:48;2.28;;;1.50;;
41687;SDS011;27371;42.686;23.362;2023-08-06T06:22:13;2.17;;;1.25;;
41687;SDS011;27371;42.686;23.362;2023-08-06T06:24:39;2.47;;;1.08;;
41687;SDS011;27371;42.686;23.362;2023-08-06T06:27:05;2.92;;;1.05;;
41687;SDS011;27371;42.686;23.362;2023-08-06T06:29:30;1.98;;;1.13;;
41687;SDS011;27371;42.686;23.362;2023-08-06T06:31:56;1.48;;;1.20;;
41687;SDS011;27371;42.686;23.362;2023-08-06T06:34:21;1.33;;;1.00;;
41687;SDS011;27371;42.686;23.362;2023-08-06T06:36:47;1.77;;;1.20;;
41687;SDS011;27371;42.686;23.362;2023-08-06T06:39:13;2.15;;;1.15;;
41687;SDS011;27371;42.686;23.362;2023-08-06T06:41:38;2.67;;;1.10;;
41687;SDS011;27371;42.686;23.362;2023-08-06T06:44:05;3.17;;;1.10;;
41687;SDS011;27371;42.686;23.362;2023-08-06T06:46:30;1.80;;;1.10;;
41687;SDS011;27371;42.686;23.362;2023-08-06T06:48:56;1.67;;;1.00;;
41687;SDS011;27371;42.686;23.362;2023-08-06T06:51:22;2.58;;;1.00;;
41687;SDS011;27371;42.686;23.362;2023-08-06T06:53:47;5.10;;;0.98;;
41687;SDS011;27371;42.686;23.362;2023-08-06T06:56:13;3.17;;;0.98;;
41687;SDS011;27371;42.686;23.362;2023-08-06T06:58:38;2.97;;;1.10;;
41687;SDS011;27371;42.686;23.362;2023-08-06T07:01:05;3.85;;;1.30;;
41687;SDS011;27371;42.686;23.362;2023-08-06T07:03:31;1.58;;;1.10;;
41687;SDS011;27371;42.686;23.362;2023-08-06T07:05:57;3.92;;;1.20;;
41687;SDS011;27371;42.686;23.362;2023-08-06T07:08:24;4.25;;;1.63;;
41687;SDS011;27371;42.686;23.362;2023-08-06T07:10:49;3.53;;;1.30;;
41687;SDS011;27371;42.686;23.362;2023-08-06T07:13:15;3.75;;;1.70;;
41687;SDS011;27371;42.686;23.362;2023-08-06T07:15:41;3.35;;;1.33;;
41687;SDS011;27371;42.686;23.362;2023-08-06T07:18:07;4.90;;;1.40;;
41687;SDS011;27371;42.686;23.362;2023-08-06T07:20:33;2.17;;;1.20;;
41687;SDS011;27371;42.686;23.362;2023-08-06T07:22:59;3.80;;;1.25;;
41687;SDS011;27371;42.686;23.362;2023-08-06T07:25:25;7.05;;;1.90;;
41687;SDS011;27371;42.686;23.362;2023-08-06T07:27:51;2.10;;;1.45;;
41687;SDS011;27371;42.686;23.362;2023-08-06T07:30:16;2.38;;;1.30;;
41687;SDS011;27371;42.686;23.362;2023-08-06T07:32:42;3.00;;;1.80;;
41687;SDS011;27371;42.686;23.362;2023-08-06T07:35:08;4.35;;;1.60;;
41687;SDS011;27371;42.686;23.362;2023-08-06T07:37:37;6.10;;;1.60;;
41687;SDS011;27371;42.686;23.362;2023-08-06T07:40:04;2.50;;;1.02;;
41687;SDS011;27371;42.686;23.362;2023-08-06T07:42:30;3.28;;;1.30;;
41687;SDS011;27371;42.686;23.362;2023-08-06T07:44:56;2.35;;;1.25;;
41687;SDS011;27371;42.686;23.362;2023-08-06T07:47:23;2.28;;;1.45;;
41687;SDS011;27371;42.686;23.362;2023-08-06T07:49:49;1.98;;;1.40;;
41687;SDS011;27371;42.686;23.362;2023-08-06T07:52:14;3.60;;;1.33;;
41687;SDS011;27371;42.686;23.362;2023-08-06T07:54:40;1.98;;;1.40;;
41687;SDS011;27371;42.686;23.362;2023-08-06T07:57:06;3.03;;;1.50;;
41687;SDS011;27371;42.686;23.362;2023-08-06T07:59:31;2.38;;;1.55;;
41687;SDS011;27371;42.686;23.362;2023-08-06T08:01:57;4.03;;;1.60;;
41687;SDS011;27371;42.686;23.362;2023-08-06T08:04:23;2.25;;;1.55;;
41687;SDS011;27371;42.686;23.362;2023-08-06T08:06:49;2.40;;;1.15;;
41687;SDS011;27371;42.686;23.362;2023-08-06T08:09:14;5.50;;;1.58;;
41687;SDS011;27371;42.686;23.362;2023-08-06T08:11:41;2.20;;;1.30;;
41687;SDS011;27371;42.686;23.362;2023-08-06T08:14:07;1.65;;;1.10;;
41687;SDS011;27371;42.686;23.362;2023-08-06T08:16:32;2.25;;;1.23;;
41687;SDS011;27371;42.686;23.362;2023-08-06T08:18:58;3.38;;;1.33;;
41687;SDS011;27371;42.686;23.362;2023-08-06T08:21:24;2.78;;;1.55;;
41687;SDS011;27371;42.686;23.362;2023-08-06T08:23:59;3.75;;;3.03;;
41687;SDS011;27371;42.686;23.362;2023-08-06T08:26:25;2.28;;;1.55;;
41687;SDS011;27371;42.686;23.362;2023-08-06T08:28:52;2.83;;;2.28;;
41687;SDS011;27371;42.686;23.362;2023-08-06T08:31:18;3.88;;;1.70;;
41687;SDS011;27371;42.686;23.362;2023-08-06T08:33:44;4.35;;;1.92;;
41687;SDS011;27371;42.686;23.362;2023-08-06T08:36:09;4.03;;;2.13;;
41687;SDS011;27371;42.686;23.362;2023-08-06T08:38:35;7.43;;;3.05;;
41687;SDS011;27371;42.686;23.362;2023-08-06T08:41:01;5.78;;;2.85;;
41687;SDS011;27371;42.686;23.362;2023-08-06T08:43:27;4.93;;;3.42;;
41687;SDS011;27371;42.686;23.362;2023-08-06T08:45:53;2.10;;;1.67;;
41687;SDS011;27371;42.686;23.362;2023-08-06T08:48:24;3.60;;;1.80;;
41687;SDS011;27371;42.686;23.362;2023-08-06T08:50:50;4.00;;;1.60;;
41687;SDS011;27371;42.686;23.362;2023-08-06T08:53:16;4.47;;;1.60;;
41687;SDS011;27371;42.686;23.362;2023-08-06T08:55:43;4.43;;;1.60;;
41687;SDS011;27371;42.686;23.362;2023-08-06T08:58:10;2.17;;;1.42;;
41687;SDS011;27371;42.686;23.362;2023-08-06T09:00:35;2.70;;;1.40;;
41687;SDS011;27371;42.686;23.362;2023-08-06T09:03:01;4.30;;;1.50;;
41687;SDS011;27371;42.686;23.362;2023-08-06T09:05:31;3.40;;;1.55;;
41687;SDS011;27371;42.686;23.362;2023-08-06T09:08:00;4.90;;;1.60;;
41687;SDS011;27371;42.686;23.362;2023-08-06T09:10:28;5.32;;;1.77;;
41687;SDS011;27371;42.686;23.362;2023-08-06T09:12:55;4.03;;;1.73;;
41687;SDS011;27371;42.686;23.362;2023-08-06T09:15:25;3.13;;;1.60;;
41687;SDS011;27371;42.686;23.362;2023-08-06T09:17:53;2.30;;;1.55;;
41687;SDS011;27371;42.686;23.362;2023-08-06T09:20:19;1.98;;;1.50;;
41687;SDS011;27371;42.686;23.362;2023-08-06T09:22:44;2.50;;;1.42;;
41687;SDS011;27371;42.686;23.362;2023-08-06T09:25:11;5.38;;;1.67;;
41687;SDS011;27371;42.686;23.362;2023-08-06T09:27:38;2.28;;;1.42;;
41687;SDS011;27371;42.686;23.362;2023-08-06T09:30:07;2.88;;;1.67;;
41687;SDS011;27371;42.686;23.362;2023-08-06T09:32:53;4.60;;;2.20;;
41687;SDS011;27371;42.686;23.362;2023-08-06T09:35:18;5.15;;;1.85;;
41687;SDS011;27371;42.686;23.362;2023-08-06T09:37:44;2.40;;;1.50;;
41687;SDS011;27371;42.686;23.362;2023-08-06T09:42:55;2.75;;;1.48;;
41687;SDS011;27371;42.686;23.362;2023-08-06T09:45:21;1.85;;;1.30;;
41687;SDS011;27371;42.686;23.362;2023-08-06T09:47:48;2.58;;;1.58;;
41687;SDS011;27371;42.686;23.362;2023-08-06T09:50:18;1.98;;;1.30;;
41687;SDS011;27371;42.686;23.362;2023-08-06T09:52:44;7.38;;;4.32;;
41687;SDS011;27371;42.686;23.362;2023-08-06T09:55:13;3.15;;;1.83;;
41687;SDS011;27371;42.686;23.362;2023-08-06T09:57:42;5.00;;;3.53;;
41687;SDS011;27371;42.686;23.362;2023-08-06T10:00:08;3.08;;;1.90;;
41687;SDS011;27371;42.686;23.362;2023-08-06T10:02:37;3.88;;;1.38;;
41687;SDS011;27371;42.686;23.362;2023-08-06T10:05:04;1.58;;;1.48;;
41687;SDS011;27371;42.686;23.362;2023-08-06T10:07:30;1.85;;;1.50;;
41687;SDS011;27371;42.686;23.362;2023-08-06T10:09:56;2.75;;;1.23;;
41687;SDS011;27371;42.686;23.362;2023-08-06T10:12:22;3.00;;;1.70;;
41687;SDS011;27371;42.686;23.362;2023-08-06T10:14:53;3.75;;;1.58;;
41687;SDS011;27371;42.686;23.362;2023-08-06T10:17:21;2.72;;;1.90;;
41687;SDS011;27371;42.686;23.362;2023-08-06T10:19:48;3.50;;;1.42;;
41687;SDS011;27371;42.686;23.362;2023-08-06T10:22:16;1.77;;;1.30;;
41687;SDS011;27371;42.686;23.362;2023-08-06T10:24:50;2.97;;;1.58;;
41687;SDS011;27371;42.686;23.362;2023-08-06T10:27:27;3.42;;;1.40;;
41687;SDS011;27371;42.686;23.362;2023-08-06T10:29:56;2.83;;;1.83;;
41687;SDS011;27371;42.686;23.362;2023-08-06T10:32:48;3.13;;;1.50;;
41687;SDS011;27371;42.686;23.362;2023-08-06T10:35:40;2.72;;;2.00;;
41687;SDS011;27371;42.686;23.362;2023-08-06T10:40:34;3.08;;;1.60;;
41687;SDS011;27371;42.686;23.362;2023-08-06T10:43:01;3.88;;;1.40;;
41687;SDS011;27371;42.686;23.362;2023-08-06T10:45:28;3.38;;;1.52;;
41687;SDS011;27371;42.686;23.362;2023-08-06T10:47:55;3.08;;;1.35;;
41687;SDS011;27371;42.686;23.362;2023-08-06T10:50:22;2.83;;;1.55;;
41687;SDS011;27371;42.686;23.362;2023-08-06T10:52:48;2.83;;;1.30;;
41687;SDS011;27371;42.686;23.362;2023-08-06T10:55:15;2.03;;;1.23;;
41687;SDS011;27371;42.686;23.362;2023-08-06T10:57:54;2.38;;;1.40;;
41687;SDS011;27371;42.686;23.362;2023-08-06T11:00:24;2.30;;;1.42;;
41687;SDS011;27371;42.686;23.362;2023-08-06T11:02:51;2.22;;;1.60;;
41687;SDS011;27371;42.686;23.362;2023-08-06T11:05:17;2.25;;;1.38;;
41687;SDS011;27371;42.686;23.362;2023-08-06T11:07:42;3.65;;;1.40;;
41687;SDS011;27371;42.686;23.362;2023-08-06T11:10:09;5.68;;;1.73;;
41687;SDS011;27371;42.686;23.362;2023-08-06T11:12:36;2.88;;;1.50;;
41687;SDS011;27371;42.686;23.362;2023-08-06T11:15:02;1.45;;;1.35;;
41687;SDS011;27371;42.686;23.362;2023-08-06T11:17:32;4.32;;;1.67;;
41687;SDS011;27371;42.686;23.362;2023-08-06T11:19:59;3.13;;;1.85;;
41687;SDS011;27371;42.686;23.362;2023-08-06T11:22:26;4.93;;;1.77;;
41687;SDS011;27371;42.686;23.362;2023-08-06T11:24:52;2.10;;;1.50;;
41687;SDS011;27371;42.686;23.362;2023-08-06T11:27:18;2.92;;;1.75;;
41687;SDS011;27371;42.686;23.362;2023-08-06T11:29:44;2.33;;;1.73;;
41687;SDS011;27371;42.686;23.362;2023-08-06T11:32:10;5.38;;;2.25;;
41687;SDS011;27371;42.686;23.362;2023-08-06T11:34:36;2.40;;;1.98;;
41687;SDS011;27371;42.686;23.362;2023-08-06T11:37:05;5.72;;;2.10;;
41687;SDS011;27371;42.686;23.362;2023-08-06T11:39:34;5.28;;;2.00;;
41687;SDS011;27371;42.686;23.362;2023-08-06T11:42:07;3.15;;;2.38;;
41687;SDS011;27371;42.686;23.362;2023-08-06T11:44:35;3.65;;;2.15;;
41687;SDS011;27371;42.686;23.362;2023-08-06T11:47:04;5.57;;;2.15;;
41687;SDS011;27371;42.686;23.362;2023-08-06T11:49:37;4.13;;;2.42;;
41687;SDS011;27371;42.686;23.362;2023-08-06T11:52:07;3.80;;;2.00;;
41687;SDS011;27371;42.686;23.362;2023-08-06T11:54:45;3.28;;;2.22;;
41687;SDS011;27371;42.686;23.362;2023-08-06T11:57:11;2.85;;;2.25;;
41687;SDS011;27371;42.686;23.362;2023-08-06T11:59:37;8.23;;;4.82;;
41687;SDS011;27371;42.686;23.362;2023-08-06T12:02:04;3.63;;;2.03;;
41687;SDS011;27371;42.686;23.362;2023-08-06T12:04:56;2.65;;;2.28;;
41687;SDS011;27371;42.686;23.362;2023-08-06T12:07:36;4.78;;;2.40;;
41687;SDS011;27371;42.686;23.362;2023-08-06T12:10:04;3.90;;;2.45;;
41687;SDS011;27371;42.686;23.362;2023-08-06T12:12:30;3.97;;;2.22;;
41687;SDS011;27371;42.686;23.362;2023-08-06T12:14:56;4.43;;;2.58;;
41687;SDS011;27371;42.686;23.362;2023-08-06T12:17:22;4.63;;;2.13;;
41687;SDS011;27371;42.686;23.362;2023-08-06T12:19:48;3.03;;;2.40;;
41687;SDS011;27371;42.686;23.362;2023-08-06T12:22:14;4.20;;;2.53;;
41687;SDS011;27371;42.686;23.362;2023-08-06T12:24:43;3.00;;;2.38;;
41687;SDS011;27371;42.686;23.362;2023-08-06T12:27:09;6.25;;;2.78;;
41687;SDS011;27371;42.686;23.362;2023-08-06T12:29:36;4.38;;;2.70;;
41687;SDS011;27371;42.686;23.362;2023-08-06T12:32:05;4.07;;;2.60;;
41687;SDS011;27371;42.686;23.362;2023-08-06T12:34:31;5.03;;;2.50;;
41687;SDS011;27371;42.686;23.362;2023-08-06T12:36:56;3.85;;;2.47;;
41687;SDS011;27371;42.686;23.362;2023-08-06T12:39:22;3.00;;;2.33;;
41687;SDS011;27371;42.686;23.362;2023-08-06T12:41:47;5.97;;;3.25;;
41687;SDS011;27371;42.686;23.362;2023-08-06T12:44:14;3.28;;;2.65;;
41687;SDS011;27371;42.686;23.362;2023-08-06T12:46:39;3.40;;;2.70;;
41687;SDS011;27371;42.686;23.362;2023-08-06T12:49:05;4.38;;;2.45;;
41687;SDS011;27371;42.686;23.362;2023-08-06T12:51:30;4.47;;;2.90;;
41687;SDS011;27371;42.686;23.362;2023-08-06T12:53:56;4.68;;;3.00;;
41687;SDS011;27371;42.686;23.362;2023-08-06T12:56:21;3.95;;;2.38;;
41687;SDS011;27371;42.686;23.362;2023-08-06T12:58:47;3.55;;;2.47;;
41687;SDS011;27371;42.686;23.362;2023-08-06T13:01:12;2.72;;;2.35;;
41687;SDS011;27371;42.686;23.362;2023-08-06T13:03:38;3.47;;;2.63;;
41687;SDS011;27371;42.686;23.362;2023-08-06T13:06:03;4.40;;;2.72;;
41687;SDS011;27371;42.686;23.362;2023-08-06T13:08:29;3.75;;;2.67;;
41687;SDS011;27371;42.686;23.362;2023-08-06T13:10:55;3.35;;;3.05;;
41687;SDS011;27371;42.686;23.362;2023-08-06T13:13:20;3.97;;;3.20;;
41687;SDS011;27371;42.686;23.362;2023-08-06T13:15:46;3.78;;;2.88;;
41687;SDS011;27371;42.686;23.362;2023-08-06T13:18:11;4.07;;;2.90;;
41687;SDS011;27371;42.686;23.362;2023-08-06T13:20:38;4.07;;;3.03;;
41687;SDS011;27371;42.686;23.362;2023-08-06T13:23:07;5.63;;;2.85;;
41687;SDS011;27371;42.686;23.362;2023-08-06T13:25:32;5.32;;;2.47;;
41687;SDS011;27371;42.686;23.362;2023-08-06T13:28:02;6.55;;;3.45;;
41687;SDS011;27371;42.686;23.362;2023-08-06T13:30:28;2.97;;;2.20;;
41687;SDS011;27371;42.686;23.362;2023-08-06T13:32:53;3.88;;;2.60;;
41687;SDS011;27371;42.686;23.362;2023-08-06T13:35:21;3.90;;;2.40;;
41687;SDS011;27371;42.686;23.362;2023-08-06T13:37:47;4.22;;;2.50;;
41687;SDS011;27371;42.686;23.362;2023-08-06T13:40:13;6.05;;;2.63;;
41687;SDS011;27371;42.686;23.362;2023-08-06T13:42:39;3.30;;;2.47;;
41687;SDS011;27371;42.686;23.362;2023-08-06T13:45:05;4.57;;;2.85;;
41687;SDS011;27371;42.686;23.362;2023-08-06T13:47:31;3.65;;;2.35;;
41687;SDS011;27371;42.686;23.362;2023-08-06T13:49:57;8.27;;;3.05;;
41687;SDS011;27371;42.686;23.362;2023-08-06T13:52:24;3.90;;;2.80;;
41687;SDS011;27371;42.686;23.362;2023-08-06T13:54:51;2.92;;;2.63;;
41687;SDS011;27371;42.686;23.362;2023-08-06T13:57:16;3.78;;;2.55;;
41687;SDS011;27371;42.686;23.362;2023-08-06T13:59:42;5.03;;;4.47;;
41687;SDS011;27371;42.686;23.362;2023-08-06T14:02:09;9.45;;;3.47;;
41687;SDS011;27371;42.686;23.362;2023-08-06T14:04:34;6.30;;;2.80;;
41687;SDS011;27371;42.686;23.362;2023-08-06T14:07:00;6.45;;;5.78;;
41687;SDS011;27371;42.686;23.362;2023-08-06T14:09:25;3.67;;;2.92;;
41687;SDS011;27371;42.686;23.362;2023-08-06T14:11:51;2.65;;;2.10;;
41687;SDS011;27371;42.686;23.362;2023-08-06T14:14:16;3.80;;;2.33;;
41687;SDS011;27371;42.686;23.362;2023-08-06T14:16:42;6.15;;;2.85;;
41687;SDS011;27371;42.686;23.362;2023-08-06T14:19:07;3.78;;;2.47;;
41687;SDS011;27371;42.686;23.362;2023-08-06T14:21:33;5.72;;;2.83;;
41687;SDS011;27371;42.686;23.362;2023-08-06T14:23:59;3.20;;;2.05;;
41687;SDS011;27371;42.686;23.362;2023-08-06T14:26:24;4.32;;;2.58;;
41687;SDS011;27371;42.686;23.362;2023-08-06T14:28:50;4.47;;;2.58;;
41687;SDS011;27371;42.686;23.362;2023-08-06T14:31:19;3.25;;;2.28;;
41687;SDS011;27371;42.686;23.362;2023-08-06T14:33:46;3.95;;;2.67;;
41687;SDS011;27371;42.686;23.362;2023-08-06T14:36:11;3.63;;;2.00;;
41687;SDS011;27371;42.686;23.362;2023-08-06T14:38:36;4.40;;;2.13;;
41687;SDS011;27371;42.686;23.362;2023-08-06T14:41:02;3.72;;;2.40;;
41687;SDS011;27371;42.686;23.362;2023-08-06T14:43:27;4.88;;;2.00;;